Etusivu
METAR-TAF:

METAR-TAF

Lentoasemat :

Talara, Peru

Leveyspiiri: 04-34S, Pituuspiiri: 081-15W, korkeus merenpinnasta: 85 m

Tämänhetkinen sää

Tämä raportti tehtiin 17 tuntia ja 49 minuuttia sitten, kello 19.00 UTC
Tuuli 7 kn lännestä/lounaasta
Lämpötila 30°C
Kosteus 62%
Ilmanpaine 1009 hPa
Näkyvyys 10 km tai enemmän
Hajonneita pilviä 4000 ft:n korkeudessa

METAR: SPYL 011900Z 25007KT 9999 BKN040 30/22 Q1009 RMK BIRD HAZARD RWY 17/35 PP000

Aika: 07:49 (12:49 UTC)

Sääennuste

Tämä raportti tehtiin 1 tunti ja 49 minuuttia sitten, kello 11.00 UTC
Ennuste voimassa 02. päivästä klo 12 UTC - 03. päivään klo 12 UTC
Tuuli 12 kn kaakosta
Näkyvyys 10 km tai enemmän
ei pilviä alle 1500 m:ssä eikä cumulonimbus-pilviä
Tulossa
02. päivästä klo 16 UTC - 02. päivään klo 18 UTC
Tuuli 10 kn lounaasta

TAF: SPYL 021100Z 0212/0312 14012KT CAVOK TX34/0219Z TN23/0311Z BECMG 0216/0218 23010KT

Säähavainnot ja -ennusteet yli 4000 lentoasemalta (METAR- ja TAF-raportit).

Käytössä olevat sääasemat on merkitty karttaan keltaisilla ja punaisilla pisteillä.

Aseta hiiri pisteen päälle nähdäksesi sääaseman nimen.

Klikkaa sitten nähdäksesi säähavainnot ja -ennusteet.

Kartan vaihtaminen: klikkaa mustalla rastilla varustettuja vihreitä pisteitä, niin voit zoomata sisään; viivalla varustettua vihreää pistettä, niin voit zoomata ulos tai vihreitä nuolia, niin pääset viereisille kartoille.


METAR-TAF: